« Back
NWS Peachtree City, Ga » Text Product » CSG Terminal Aerodrome Forecast

Printer-friendly Version
Current Version              Previous Versions:   1  2  3  4  5  6  7  8  9  

Terminal Aerodrome Forecast

FTUS42 KFFC 252337
KCSG 252337Z 2600/2624 08006KT P6SM BKN080
     FM260400 09009G14KT P6SM SCT022
     FM260800 08008G13KT P6SM BKN018
     FM261600 08011G17KT P6SM BKN023
     FM262300 08008G13KT P6SM BKN050=

USA.gov is the U.S. government's official web portal to all federal, state and local government web resources and services.